Pensacola Naval Air Station/Forrest Sherman field
KNPA : now visible

Airfield :











YOU CAN JOIN US ON...

 
LOGIN :

Register | Disclaimer

   EN    FR    IT 

 









Legend :    VFR   Marginal VFR   IFR   Intensive IFR   Very Intensive IFR
Visi :
Ceiling :
>= 8 km
>= 3000ft
5 to 8 km
1000 to 3000 ft
1500m to 5 km
500 to 1000 ft
800 to 1500m
200 to 500 ft
< 800m
< 200 ft
Symbols :   Thunderstorms  Fog  Heavy snow  Heavy precipitations  Wind > 20 kt






- Airport Elevation : 28 ft


KNPA - Pensacola Naval Air Station/Forrest Sherman field

CURRENT METAR :
  • 271656Z 01007KT 10SM SCT010 SCT060 16/12 A3000 RMK AO2 SLP159 T01560117

EXPIRED METARs :
  • 271556Z 01005KT 10SM FEW007 BKN050 13/11 A3001 RMK SLP164
  • 271456Z 02009KT 10SM FEW007 SCT015 BKN045 12/11 A2999 RMK RAE1358 SLP157 P0001 60001 T01170111 50016

TAF TAF KNPA
Valid from the 27 at 15:00 until the 28 at 15:00 UTC


2715/2815 02007KT 9999 BKN020 OVC050 QNH2990INS
TEMPO 2715/2717 BKN007
FM272100 02007KT 9999 SCT025 BKN050 QNH2990INS
FM280000 03005KT 9999 FEW025 QNH2995INS T15/2720Z T07/2813Z FN20033



MET'MAP, your aeronautical weather chart ! - Copyright ORBIFLY December 2007 - Disclaimer

ORBIFLY MET'MAP TEAM :

Programming & Development : Alexandra Zaïnal
Concept & original design : Baudouin d'Aumeries
Assistance for programming : Marc-Olivier Méhu
Technical & hardware support : Manuel Goepfert

Contact : metmap@orbifly.com




SOURCES & CREDITS :

   NOAA       Earth
Advisory